Maldives Meteorological Service

TAFS

Station TAF
VRMM
VRMM 221100Z 2212/2318 27008KT 9999 FEW018TCU BKN100 TEMPO 2212/2218 5000 -TSRA FEW017CB=
VRMH
VRMH 221100Z 2212/2318 30009KT 9999 FEW018TCU TEMPO 2215/2218 6000 –TSRA FEW018CB=
VRMK
VRMK 221100Z 2212/2312 22009KT 9000 SCT018TCU BKN100 TEMPO 2212/2218 4000 TSRA SCT017CB=
VRMT
VRMT 221100Z 2212/2312 25013KT 9000 SCT018TCU BKN100 TEMPO 2212/2218 4000 TSRA SCT016CB=
VRMG
VRMG 221100Z 2212/2318 27016KT 9000 SCT017TCU BKN100 TEMPO 2214/2220 27018G34KT 3000 TSRA SCT016CB=